Time;durP1;ratioP1;P1;durP2;ratioP2;P2;SDS_P1;SDS_P2;PMS_P1;PMS_P2;Temp;Humidity;BMP_temperature;BMP_pressure;BME280_temperature;BME280_humidity;BME280_pressure;Samples;Min_cycle;Max_cycle;Signal;HPM_P1;HPM_P2
2023/11/08 00:01:03;;;;;;;35.50;20.90;;;9.00;99.90;;;;;;4123096;28;20408;-61
2023/11/08 00:03:04;;;;;;;38.00;21.77;;;9.10;99.90;;;;;;4129615;28;20108;-61
2023/11/08 00:05:06;;;;;;;36.83;21.57;;;9.10;99.90;;;;;;4128005;28;21089;-62
2023/11/08 00:07:09;;;;;;;38.20;22.10;;;9.10;99.90;;;;;;4120215;28;20459;-61
2023/11/08 00:09:10;;;;;;;42.37;23.00;;;9.10;99.90;;;;;;4112265;28;20102;-61
2023/11/08 00:11:11;;;;;;;44.07;23.67;;;9.10;99.90;;;;;;4113337;28;20042;-62
2023/11/08 00:13:12;;;;;;;40.50;22.53;;;9.10;99.90;;;;;;4113563;28;20970;-60
2023/11/08 00:15:13;;;;;;;41.80;22.53;;;9.10;99.90;;;;;;4114874;28;20089;-57
2023/11/08 00:17:16;;;;;;;40.13;23.80;;;9.10;99.90;;;;;;4113654;28;20094;-61
2023/11/08 00:19:17;;;;;;;38.40;23.27;;;9.10;99.90;;;;;;4125484;28;20041;-61
2023/11/08 00:21:18;;;;;;;46.27;24.07;;;9.10;99.90;;;;;;4126893;28;20077;-61
2023/11/08 00:23:19;;;;;;;47.40;25.13;;;9.10;99.90;;;;;;4126493;28;20553;-60
2023/11/08 00:25:20;;;;;;;42.80;23.47;;;9.10;99.90;;;;;;4129044;28;20038;-61
2023/11/08 00:27:21;;;;;;;42.73;24.20;;;9.10;99.90;;;;;;4120753;28;20476;-61
2023/11/08 00:29:26;;;;;;;44.77;25.93;;;9.10;99.90;;;;;;4113767;28;20093;-62
2023/11/08 00:31:27;;;;;;;42.07;23.63;;;9.10;99.90;;;;;;4113216;28;20034;-62
2023/11/08 00:33:28;;;;;;;38.77;22.97;;;9.20;99.90;;;;;;4124517;28;20038;-62
2023/11/08 00:35:29;;;;;;;45.10;23.63;;;9.20;99.90;;;;;;4115035;28;20366;-61
2023/11/08 00:37:30;;;;;;;39.10;22.80;;;9.20;99.90;;;;;;4127465;28;20030;-61
2023/11/08 00:39:32;;;;;;;50.47;23.57;;;9.30;99.90;;;;;;4127599;28;20038;-61
2023/11/08 00:41:34;;;;;;;37.77;21.70;;;9.20;99.90;;;;;;4127414;28;20046;-62
2023/11/08 00:43:35;;;;;;;37.93;20.93;;;9.30;99.90;;;;;;4112612;28;20086;-61
2023/11/08 00:45:36;;;;;;;39.87;22.03;;;9.30;99.90;;;;;;4112595;28;20031;-62
2023/11/08 00:47:37;;;;;;;45.70;22.60;;;9.30;99.90;;;;;;4123130;28;20034;-61
2023/11/08 00:49:39;;;;;;;41.87;21.73;;;9.30;99.90;;;;;;4127563;28;20101;-60
2023/11/08 00:51:40;;;;;;;36.57;20.70;;;9.30;99.90;;;;;;4112847;28;20558;-61
2023/11/08 00:53:41;;;;;;;36.33;20.47;;;9.30;99.90;;;;;;4111748;28;20089;-61
2023/11/08 00:55:42;;;;;;;33.73;20.27;;;9.30;99.90;;;;;;4112563;28;20062;-61
2023/11/08 00:57:43;;;;;;;35.80;19.40;;;9.30;99.90;;;;;;4110805;28;20030;-61
2023/11/08 00:59:44;;;;;;;32.20;16.93;;;9.30;99.90;;;;;;4128775;28;20124;-61
2023/11/08 01:01:47;;;;;;;32.23;17.47;;;9.30;99.90;;;;;;4111898;28;20050;-60
2023/11/08 01:03:49;;;;;;;31.17;17.67;;;9.30;99.90;;;;;;4112586;28;20120;-61
2023/11/08 01:05:51;;;;;;;32.43;17.40;;;9.30;99.90;;;;;;4111464;28;20054;-61
2023/11/08 01:07:52;;;;;;;34.97;17.83;;;9.30;99.90;;;;;;4112986;28;20141;-62
2023/11/08 01:09:53;;;;;;;32.87;17.80;;;9.20;99.90;;;;;;4111729;28;20050;-59
2023/11/08 01:11:54;;;;;;;29.10;17.50;;;9.20;99.90;;;;;;4113841;28;20031;-60
2023/11/08 01:13:55;;;;;;;29.87;17.77;;;9.10;99.90;;;;;;4113198;28;20019;-61
2023/11/08 01:15:56;;;;;;;30.17;17.07;;;9.10;99.90;;;;;;4113617;28;20730;-60
2023/11/08 01:17:57;;;;;;;32.53;17.00;;;9.10;99.90;;;;;;4112890;28;20438;-61
2023/11/08 01:20:00;;;;;;;30.37;16.40;;;9.10;99.90;;;;;;4124773;28;20058;-61
2023/11/08 01:22:05;;;;;;;29.23;17.13;;;9.10;99.90;;;;;;4128162;28;20023;-61
2023/11/08 01:24:06;;;;;;;27.27;16.53;;;9.00;99.90;;;;;;4127484;28;20478;-62
2023/11/08 01:26:08;;;;;;;26.90;16.07;;;9.00;99.90;;;;;;4128700;28;20438;-61
2023/11/08 01:28:11;;;;;;;25.47;15.67;;;9.00;99.90;;;;;;4126226;28;20093;-61
2023/11/08 01:30:12;;;;;;;31.13;16.87;;;9.00;99.90;;;;;;4096975;29;20039;-61
2023/11/08 01:32:13;;;;;;;29.67;15.80;;;9.00;99.90;;;;;;4094133;28;20066;-60
2023/11/08 01:34:15;;;;;;;28.70;16.17;;;9.00;99.90;;;;;;4110450;28;20038;-61
2023/11/08 01:36:16;;;;;;;28.77;16.13;;;9.00;99.90;;;;;;4112185;28;20086;-61
2023/11/08 01:38:17;;;;;;;25.33;14.97;;;9.00;99.90;;;;;;4112609;28;20050;-61
2023/11/08 01:40:20;;;;;;;30.97;17.00;;;9.00;99.90;;;;;;4112490;28;20042;-61
2023/11/08 01:42:22;;;;;;;32.97;16.00;;;8.90;99.90;;;;;;4115699;28;20426;-62
2023/11/08 01:44:23;;;;;;;32.63;16.30;;;9.00;99.90;;;;;;4127552;28;20042;-62
2023/11/08 01:46:26;;;;;;;37.07;18.70;;;8.90;99.90;;;;;;4126727;28;20073;-61
2023/11/08 01:48:27;;;;;;;29.27;17.73;;;8.90;99.90;;;;;;4127164;28;20018;-62
2023/11/08 01:50:28;;;;;;;34.60;18.03;;;8.90;99.90;;;;;;4122339;28;20089;-59
2023/11/08 01:52:30;;;;;;;31.03;18.70;;;8.90;99.90;;;;;;4111566;28;20077;-61
2023/11/08 01:54:31;;;;;;;32.13;18.03;;;8.90;99.90;;;;;;4111859;28;20051;-61
2023/11/08 01:56:33;;;;;;;36.03;19.20;;;8.90;99.90;;;;;;4111382;28;20062;-61
2023/11/08 01:58:38;;;;;;;33.57;19.23;;;9.00;99.90;;;;;;4110987;28;20077;-60
2023/11/08 02:00:41;;;;;;;32.53;18.40;;;9.00;99.90;;;;;;4112466;28;20133;-62
2023/11/08 02:02:44;;;;;;;38.80;18.43;;;9.00;99.90;;;;;;4111320;28;20035;-61
2023/11/08 02:04:47;;;;;;;33.47;19.40;;;9.00;99.90;;;;;;4112225;28;20047;-62
2023/11/08 02:06:49;;;;;;;35.47;19.53;;;9.00;99.90;;;;;;4116880;28;21118;-60
2023/11/08 02:08:50;;;;;;;31.57;18.97;;;9.00;99.90;;;;;;4128942;28;20085;-61
2023/11/08 02:10:51;;;;;;;39.00;20.30;;;9.00;99.90;;;;;;4130301;28;20089;-61
2023/11/08 02:12:53;;;;;;;38.93;18.87;;;9.00;99.90;;;;;;4131338;28;20054;-61
2023/11/08 02:15:02;;;;;;;38.33;19.17;;;9.10;99.90;;;;;;4130279;28;20057;-62
2023/11/08 02:17:03;;;;;;;36.23;18.43;;;9.10;99.90;;;;;;4129092;28;20070;-62
2023/11/08 02:19:05;;;;;;;31.07;18.10;;;9.10;99.90;;;;;;4114530;28;20027;-61
2023/11/08 02:21:06;;;;;;;32.23;18.40;;;9.10;99.90;;;;;;4114883;28;20063;-62
2023/11/08 02:23:07;;;;;;;31.77;17.33;;;9.10;99.90;;;;;;4118673;28;20034;-61
2023/11/08 02:25:10;;;;;;;32.97;18.73;;;9.10;99.90;;;;;;4130755;28;20438;-62
2023/11/08 02:27:11;;;;;;;29.43;19.07;;;9.10;99.90;;;;;;4124549;28;20129;-60
2023/11/08 02:29:13;;;;;;;36.30;20.17;;;9.10;99.90;;;;;;4114642;28;20047;-61
2023/11/08 02:31:16;;;;;;;36.87;20.60;;;9.10;99.90;;;;;;4117891;28;20030;-61
2023/11/08 02:33:18;;;;;;;35.20;20.53;;;9.10;99.90;;;;;;4129700;28;20428;-60
2023/11/08 02:35:19;;;;;;;37.70;20.63;;;9.10;99.90;;;;;;4116129;28;20035;-61
2023/11/08 02:37:20;;;;;;;34.10;19.27;;;9.10;99.90;;;;;;4115937;28;20023;-61
2023/11/08 02:39:21;;;;;;;34.50;19.13;;;9.10;99.90;;;;;;4130230;28;20054;-60
2023/11/08 02:41:24;;;;;;;36.67;19.10;;;9.10;99.90;;;;;;4129336;28;20077;-59
2023/11/08 02:43:25;;;;;;;36.27;19.40;;;9.10;99.90;;;;;;4130702;28;20061;-61
2023/11/08 02:45:26;;;;;;;34.90;18.37;;;9.10;99.90;;;;;;4128590;28;20101;-62
2023/11/08 02:47:28;;;;;;;34.53;18.20;;;9.10;99.90;;;;;;4114558;28;20140;-61
2023/11/08 02:49:30;;;;;;;33.83;18.00;;;9.10;99.90;;;;;;4113191;28;20105;-61
2023/11/08 02:51:31;;;;;;;35.37;18.47;;;9.10;99.90;;;;;;4114798;28;20086;-61
2023/11/08 02:53:32;;;;;;;57.23;30.47;;;9.20;99.90;;;;;;4113167;28;20050;-60
2023/11/08 02:55:37;;;;;;;31.17;18.10;;;9.20;99.90;;;;;;4114434;28;20047;-61
2023/11/08 02:57:38;;;;;;;31.63;16.67;;;9.20;99.90;;;;;;4122089;28;20050;-62
2023/11/08 02:59:40;;;;;;;29.27;17.60;;;9.20;99.90;;;;;;4124363;28;20491;-61
2023/11/08 03:01:41;;;;;;;32.23;17.43;;;9.30;99.90;;;;;;4126742;28;20104;-62
2023/11/08 03:03:42;;;;;;;29.63;16.50;;;9.20;99.90;;;;;;4129137;28;20105;-62
2023/11/08 03:05:43;;;;;;;26.87;16.07;;;9.20;99.90;;;;;;4120314;28;20035;-61
2023/11/08 03:07:45;;;;;;;31.83;16.60;;;9.20;99.90;;;;;;4113097;28;20039;-61
2023/11/08 03:09:46;;;;;;;24.93;15.53;;;9.30;99.90;;;;;;4114302;28;20043;-61
2023/11/08 03:11:47;;;;;;;22.53;14.07;;;9.20;99.90;;;;;;4114198;28;20038;-61
2023/11/08 03:13:49;;;;;;;26.63;14.37;;;9.30;99.90;;;;;;4116034;28;20018;-61
2023/11/08 03:15:50;;;;;;;22.73;14.10;;;9.30;99.90;;;;;;4127504;28;20030;-62
2023/11/08 03:17:52;;;;;;;24.83;13.50;;;9.30;99.90;;;;;;4128455;28;20069;-61
2023/11/08 03:19:53;;;;;;;22.47;13.33;;;9.30;99.90;;;;;;4113404;28;20443;-61
2023/11/08 03:21:54;;;;;;;22.37;12.67;;;9.30;99.90;;;;;;4113361;28;20058;-62
2023/11/08 03:23:58;;;;;;;24.07;13.03;;;9.30;99.90;;;;;;4119995;28;20043;-62
2023/11/08 03:25:59;;;;;;;22.73;11.93;;;9.40;99.90;;;;;;4113944;28;20069;-61
2023/11/08 03:28:00;;;;;;;16.97;11.20;;;9.30;99.90;;;;;;4113276;28;20542;-61
2023/11/08 03:30:01;;;;;;;19.37;10.77;;;9.40;99.90;;;;;;4128429;28;20086;-62
2023/11/08 03:32:02;;;;;;;17.67;10.97;;;9.40;99.90;;;;;;4127506;28;20554;-61
2023/11/08 03:34:04;;;;;;;22.10;10.73;;;9.40;99.90;;;;;;4127475;28;20085;-60
2023/11/08 03:36:05;;;;;;;19.40;10.70;;;9.40;99.90;;;;;;4129572;28;20054;-61
2023/11/08 03:38:06;;;;;;;18.23;10.63;;;9.40;99.90;;;;;;4128972;28;20038;-61
2023/11/08 03:40:11;;;;;;;20.83;10.90;;;9.40;99.90;;;;;;4114670;28;20090;-61
2023/11/08 03:42:12;;;;;;;19.80;10.40;;;9.40;99.90;;;;;;4112747;28;20094;-62
2023/11/08 03:44:14;;;;;;;17.33;10.00;;;9.50;99.90;;;;;;4113443;28;20094;-62
2023/11/08 03:46:15;;;;;;;16.20;9.70;;;9.50;99.90;;;;;;4112487;28;20504;-62
2023/11/08 03:48:16;;;;;;;17.10;9.87;;;9.50;99.90;;;;;;4113966;28;20031;-61
2023/11/08 03:50:17;;;;;;;19.93;10.67;;;9.50;99.90;;;;;;4113282;28;20035;-61
2023/11/08 03:52:18;;;;;;;16.97;9.80;;;9.50;99.90;;;;;;4122845;28;20105;-61
2023/11/08 03:54:19;;;;;;;15.03;9.07;;;9.50;99.90;;;;;;4113994;28;20081;-61
2023/11/08 03:56:21;;;;;;;18.20;9.40;;;9.50;99.90;;;;;;4113748;28;20093;-62
2023/11/08 03:58:22;;;;;;;20.77;9.70;;;9.50;99.90;;;;;;4112316;28;20396;-62
2023/11/08 04:00:25;;;;;;;17.70;9.70;;;9.60;99.90;;;;;;4114410;28;20045;-62
2023/11/08 04:02:26;;;;;;;15.53;9.30;;;9.50;99.90;;;;;;4112508;28;20423;-63
2023/11/08 04:04:27;;;;;;;16.63;9.60;;;9.60;99.90;;;;;;4112315;28;20027;-62
2023/11/08 04:06:28;;;;;;;19.47;9.80;;;9.60;99.90;;;;;;4112808;28;20035;-62
2023/11/08 04:08:30;;;;;;;22.63;11.70;;;9.60;99.90;;;;;;4123984;28;20042;-62
2023/11/08 04:10:31;;;;;;;18.47;9.53;;;9.60;99.90;;;;;;4113051;28;20039;-62
2023/11/08 04:12:32;;;;;;;16.17;9.67;;;9.60;99.90;;;;;;4112380;28;20046;-61
2023/11/08 04:14:33;;;;;;;15.07;9.10;;;9.60;99.90;;;;;;4114198;28;20104;-61
2023/11/08 04:16:40;;;;;;;16.77;9.60;;;9.70;99.90;;;;;;4119589;28;20532;-62
2023/11/08 04:18:41;;;;;;;17.37;9.50;;;9.60;99.90;;;;;;4123437;28;20085;-61
2023/11/08 04:20:45;;;;;;;14.37;9.70;;;9.60;99.90;;;;;;4123463;28;20407;-61
2023/11/08 04:22:47;;;;;;;19.83;10.33;;;9.60;99.90;;;;;;4128891;28;20064;-62
2023/11/08 04:24:48;;;;;;;14.63;8.80;;;9.60;99.90;;;;;;4126210;28;20615;-62
2023/11/08 04:26:51;;;;;;;16.60;9.60;;;9.60;99.90;;;;;;4129038;28;20141;-61
2023/11/08 04:28:54;;;;;;;18.07;9.77;;;9.60;99.90;;;;;;4127482;28;20035;-61
2023/11/08 04:30:55;;;;;;;18.83;10.17;;;9.60;99.90;;;;;;4127707;28;20085;-60
2023/11/08 04:32:56;;;;;;;17.80;9.53;;;9.60;99.90;;;;;;4126129;28;20034;-62
2023/11/08 04:34:57;;;;;;;15.57;9.77;;;9.60;99.90;;;;;;4113841;28;20078;-62
2023/11/08 04:36:58;;;;;;;16.63;10.50;;;9.70;99.90;;;;;;4124047;28;20491;-62
2023/11/08 04:38:59;;;;;;;17.57;10.70;;;9.70;99.90;;;;;;4119005;28;20086;-60
2023/11/08 04:41:02;;;;;;;16.53;9.17;;;9.70;99.90;;;;;;4121007;28;20098;-61
2023/11/08 04:43:03;;;;;;;18.00;9.43;;;9.60;99.90;;;;;;4111710;28;20114;-61
2023/11/08 04:45:05;;;;;;;14.00;8.90;;;9.60;99.90;;;;;;4105028;28;20035;-60
2023/11/08 04:47:07;;;;;;;17.57;9.47;;;9.60;99.90;;;;;;4098601;28;20027;-62
2023/11/08 04:49:09;;;;;;;18.43;10.13;;;9.60;99.90;;;;;;4112662;28;20388;-62
2023/11/08 04:51:10;;;;;;;30.60;16.47;;;9.60;99.90;;;;;;4111633;28;20185;-57
2023/11/08 04:53:12;;;;;;;19.93;11.47;;;9.60;99.90;;;;;;4112747;28;20093;-58
2023/11/08 04:55:13;;;;;;;18.23;10.33;;;9.50;99.90;;;;;;4111520;28;20067;-61
2023/11/08 04:57:18;;;;;;;20.33;9.17;;;9.50;99.90;;;;;;4112672;28;20038;-60
2023/11/08 04:59:19;;;;;;;19.07;10.13;;;9.50;99.90;;;;;;4112265;28;20430;-60
2023/11/08 05:01:21;;;;;;;14.30;9.53;;;9.50;99.90;;;;;;4114004;28;20055;-60
2023/11/08 05:03:22;;;;;;;16.47;9.80;;;9.50;99.90;;;;;;4111736;28;20495;-61
2023/11/08 05:05:24;;;;;;;16.43;10.13;;;9.50;99.90;;;;;;4112723;28;20054;-62
2023/11/08 05:07:25;;;;;;;16.87;10.10;;;9.50;99.90;;;;;;4111514;28;20034;-61
2023/11/08 05:09:28;;;;;;;15.93;9.90;;;9.50;99.90;;;;;;4111945;28;20427;-61
2023/11/08 05:11:29;;;;;;;17.77;9.23;;;9.50;99.90;;;;;;4111784;28;20085;-60
2023/11/08 05:13:31;;;;;;;16.27;9.83;;;9.60;99.90;;;;;;4112672;28;20070;-61
2023/11/08 05:15:32;;;;;;;16.73;10.13;;;9.50;99.90;;;;;;4113041;28;20089;-60
2023/11/08 05:17:33;;;;;;;16.33;10.07;;;9.60;99.90;;;;;;4111256;28;20443;-60
2023/11/08 05:19:34;;;;;;;18.03;9.70;;;9.60;99.90;;;;;;4112987;28;20082;-61
2023/11/08 05:21:36;;;;;;;13.43;9.00;;;9.60;99.90;;;;;;4110926;28;20381;-60
2023/11/08 05:23:37;;;;;;;19.70;9.93;;;9.60;99.90;;;;;;4112199;28;20464;-61
2023/11/08 05:25:42;;;;;;;19.60;10.87;;;9.60;99.90;;;;;;4111063;28;20077;-62
2023/11/08 05:27:43;;;;;;;15.93;9.20;;;9.60;99.90;;;;;;4112071;28;20019;-61
2023/11/08 05:29:44;;;;;;;18.10;9.73;;;9.60;99.90;;;;;;4110714;28;20102;-59
2023/11/08 05:31:47;;;;;;;19.60;10.30;;;9.60;99.90;;;;;;4112738;28;20039;-61
2023/11/08 05:33:48;;;;;;;19.23;10.20;;;9.60;99.90;;;;;;4110822;28;20023;-61
2023/11/08 05:35:49;;;;;;;18.77;10.40;;;9.60;99.90;;;;;;4110436;28;20051;-62
2023/11/08 05:37:50;;;;;;;16.93;9.77;;;9.60;99.90;;;;;;4124382;28;20549;-62
2023/11/08 05:39:53;;;;;;;15.83;10.57;;;9.60;99.90;;;;;;4126233;28;20538;-60
2023/11/08 05:41:55;;;;;;;17.17;9.10;;;9.60;99.90;;;;;;4120597;28;20114;-62
2023/11/08 05:43:58;;;;;;;22.07;9.80;;;9.60;99.90;;;;;;4096849;28;20044;-62
2023/11/08 05:45:59;;;;;;;20.73;10.47;;;9.60;99.90;;;;;;4115066;28;20117;-61
2023/11/08 05:48:00;;;;;;;23.43;12.50;;;9.60;99.90;;;;;;4114957;28;20113;-61
2023/11/08 05:50:01;;;;;;;19.13;11.53;;;9.60;99.90;;;;;;4114973;28;20046;-61
2023/11/08 05:52:03;;;;;;;22.20;11.87;;;9.60;99.90;;;;;;4114204;28;20054;-62
2023/11/08 05:54:04;;;;;;;15.80;10.73;;;9.60;99.90;;;;;;4114947;28;20043;-61
2023/11/08 05:56:06;;;;;;;20.70;10.97;;;9.60;99.90;;;;;;4114924;28;20026;-60
2023/11/08 05:58:07;;;;;;;26.47;11.63;;;9.60;99.90;;;;;;4098815;28;20035;-61
2023/11/08 06:00:09;;;;;;;20.73;11.10;;;9.60;99.90;;;;;;4098937;28;20055;-61
2023/11/08 06:02:11;;;;;;;16.83;10.23;;;9.60;99.90;;;;;;4128083;28;20088;-61
2023/11/08 06:04:12;;;;;;;20.67;10.87;;;9.60;99.90;;;;;;4118523;28;20046;-61
2023/11/08 06:06:14;;;;;;;20.60;10.33;;;9.70;99.90;;;;;;4114898;28;20081;-62
2023/11/08 06:08:15;;;;;;;22.30;11.60;;;9.70;99.90;;;;;;4114157;28;20476;-62
2023/11/08 06:10:16;;;;;;;23.37;12.23;;;9.70;99.90;;;;;;4114099;28;20188;-62
2023/11/08 06:12:17;;;;;;;18.50;11.07;;;9.80;99.90;;;;;;4113777;28;20039;-62
2023/11/08 06:14:18;;;;;;;16.70;10.00;;;9.80;99.90;;;;;;4113779;28;20089;-61
2023/11/08 06:16:19;;;;;;;18.97;10.87;;;9.90;99.90;;;;;;4114133;28;20081;-61
2023/11/08 06:18:25;;;;;;;18.23;11.23;;;9.90;99.90;;;;;;4113840;28;20043;-62
2023/11/08 06:20:26;;;;;;;17.47;10.60;;;10.00;99.90;;;;;;4113860;28;20035;-64
2023/11/08 06:22:27;;;;;;;18.83;11.77;;;10.00;99.90;;;;;;4113074;28;20636;-61
2023/11/08 06:24:28;;;;;;;17.20;11.40;;;10.00;99.90;;;;;;4113097;28;20108;-63
2023/11/08 06:26:29;;;;;;;15.90;9.40;;;10.10;99.90;;;;;;4113242;28;20038;-61
2023/11/08 06:28:30;;;;;;;18.83;11.13;;;10.20;99.90;;;;;;4114411;28;20443;-63
2023/11/08 06:30:32;;;;;;;17.67;9.67;;;10.20;99.90;;;;;;4113491;28;20034;-62
2023/11/08 06:32:34;;;;;;;19.33;10.33;;;10.20;99.90;;;;;;4114204;28;20089;-62
2023/11/08 06:34:40;;;;;;;15.07;9.33;;;10.30;99.90;;;;;;4112900;28;20030;-62
2023/11/08 06:36:41;;;;;;;16.40;9.40;;;10.30;99.90;;;;;;4114171;28;20089;-62
2023/11/08 06:38:42;;;;;;;13.33;9.57;;;10.50;99.90;;;;;;4112871;28;20073;-62
2023/11/08 06:40:43;;;;;;;20.73;10.17;;;10.70;99.90;;;;;;4114093;28;20126;-62
2023/11/08 06:42:45;;;;;;;13.63;8.70;;;10.80;99.90;;;;;;4113108;28;20143;-62
2023/11/08 06:44:47;;;;;;;16.97;10.93;;;10.90;99.90;;;;;;4113728;28;20039;-62
2023/11/08 06:46:48;;;;;;;14.90;10.07;;;11.00;99.90;;;;;;4112094;28;20471;-62
2023/11/08 06:48:49;;;;;;;20.53;9.93;;;11.10;99.90;;;;;;4113200;28;20081;-59
2023/11/08 06:50:51;;;;;;;20.83;10.30;;;11.30;99.90;;;;;;4113735;28;20031;-62
2023/11/08 06:52:52;;;;;;;16.20;10.63;;;11.40;99.90;;;;;;4112969;28;20537;-63
2023/11/08 06:54:53;;;;;;;18.77;11.60;;;11.40;99.90;;;;;;4113289;28;20093;-62
2023/11/08 06:56:55;;;;;;;24.53;13.00;;;11.40;99.90;;;;;;4112480;28;20102;-62
2023/11/08 06:58:56;;;;;;;22.20;11.93;;;11.40;99.90;;;;;;4113765;28;20490;-62
2023/11/08 07:01:01;;;;;;;23.33;12.43;;;11.40;99.90;;;;;;4113039;28;20094;-58
2023/11/08 07:03:03;;;;;;;22.40;12.60;;;11.40;99.90;;;;;;4112658;28;20046;-63
2023/11/08 07:05:05;;;;;;;18.07;11.47;;;11.50;99.90;;;;;;4112347;28;20069;-63
2023/11/08 07:07:10;;;;;;;23.13;11.50;;;11.60;99.90;;;;;;4114056;28;20039;-62
2023/11/08 07:09:13;;;;;;;18.53;10.40;;;11.70;99.90;;;;;;4112820;28;20379;-61
2023/11/08 07:11:15;;;;;;;16.43;10.17;;;11.70;99.90;;;;;;4114065;28;20042;-64
2023/11/08 07:13:16;;;;;;;22.50;11.47;;;11.80;99.90;;;;;;4112867;28;20038;-62
2023/11/08 07:15:17;;;;;;;21.43;11.43;;;11.70;99.90;;;;;;4113541;28;20126;-62
2023/11/08 07:17:18;;;;;;;23.13;12.17;;;11.50;99.90;;;;;;4113098;28;20499;-62
2023/11/08 07:19:19;;;;;;;22.63;12.63;;;11.40;99.90;;;;;;4112982;28;20038;-62
2023/11/08 07:21:21;;;;;;;23.27;12.43;;;11.50;99.90;;;;;;4113023;28;20125;-62
2023/11/08 07:23:22;;;;;;;21.40;11.73;;;11.50;99.90;;;;;;4112937;28;20313;-62
2023/11/08 07:25:23;;;;;;;18.57;12.17;;;11.70;99.90;;;;;;4113153;28;20082;-63
2023/11/08 07:27:25;;;;;;;21.80;12.03;;;11.80;99.90;;;;;;4112113;28;20039;-62
2023/11/08 07:29:26;;;;;;;19.90;12.50;;;11.90;99.90;;;;;;4112136;28;20101;-62
2023/11/08 07:31:27;;;;;;;16.63;12.13;;;12.00;99.90;;;;;;4112961;28;20038;-62
2023/11/08 07:33:29;;;;;;;19.57;12.20;;;12.10;99.90;;;;;;4113237;28;20443;-62
2023/11/08 07:35:30;;;;;;;18.77;11.67;;;12.00;99.90;;;;;;4112195;28;20090;-62
2023/11/08 07:37:31;;;;;;;17.27;10.87;;;12.00;99.90;;;;;;4113634;28;20082;-62
2023/11/08 07:39:32;;;;;;;19.97;11.20;;;12.10;99.90;;;;;;4112054;28;20089;-63
2023/11/08 07:41:33;;;;;;;16.10;9.87;;;12.20;99.90;;;;;;4113062;28;20085;-62
2023/11/08 07:43:35;;;;;;;21.30;11.07;;;12.20;99.90;;;;;;4111855;28;20043;-62
2023/11/08 07:45:36;;;;;;;17.67;10.37;;;12.30;99.90;;;;;;4113057;28;20087;-62
2023/11/08 07:47:37;;;;;;;17.57;10.07;;;12.30;99.90;;;;;;4112234;28;20093;-63
2023/11/08 07:49:38;;;;;;;21.17;10.60;;;12.20;99.90;;;;;;4112755;28;20043;-61
2023/11/08 07:51:39;;;;;;;17.10;10.77;;;12.30;99.90;;;;;;4112159;28;20097;-62
2023/11/08 07:53:40;;;;;;;18.43;10.43;;;12.20;99.90;;;;;;4112260;28;20451;-62
2023/11/08 07:55:42;;;;;;;17.43;10.73;;;12.20;99.90;;;;;;4112954;28;20106;-62
2023/11/08 07:57:43;;;;;;;16.20;9.73;;;12.20;99.90;;;;;;4112043;28;20042;-63
2023/11/08 07:59:45;;;;;;;17.47;10.37;;;12.20;99.90;;;;;;4112886;28;20043;-61
2023/11/08 08:01:47;;;;;;;17.33;10.37;;;12.20;99.90;;;;;;4112084;28;20078;-61
2023/11/08 08:03:48;;;;;;;17.00;10.93;;;12.20;99.90;;;;;;4112969;28;20076;-62
2023/11/08 08:05:50;;;;;;;20.10;11.27;;;12.30;99.90;;;;;;4111665;28;20050;-62
2023/11/08 08:07:52;;;;;;;14.50;9.93;;;12.30;99.90;;;;;;4112435;28;20039;-60
2023/11/08 08:09:54;;;;;;;17.70;11.00;;;12.30;99.90;;;;;;4111579;28;20085;-62
2023/11/08 08:11:56;;;;;;;17.60;11.00;;;12.30;99.90;;;;;;4112829;28;20038;-62
2023/11/08 08:13:57;;;;;;;17.27;11.53;;;12.30;99.90;;;;;;4111756;28;20023;-62
2023/11/08 08:15:59;;;;;;;15.07;9.73;;;12.40;99.90;;;;;;4112862;28;20070;-62
2023/11/08 08:18:00;;;;;;;21.40;11.93;;;12.30;99.90;;;;;;4111573;28;20019;-62
2023/11/08 08:20:04;;;;;;;20.40;11.07;;;12.30;99.90;;;;;;4112187;28;20407;-63
2023/11/08 08:22:06;;;;;;;18.00;11.10;;;12.40;99.90;;;;;;4111453;28;20059;-63
2023/11/08 08:24:07;;;;;;;23.53;13.87;;;12.40;99.90;;;;;;4112174;28;20047;-64
2023/11/08 08:26:08;;;;;;;21.20;11.93;;;12.50;99.90;;;;;;4112247;28;20081;-63
2023/11/08 08:28:09;;;;;;;29.90;14.30;;;12.50;99.90;;;;;;4111906;28;20027;-63
2023/11/08 08:30:14;;;;;;;22.20;14.63;;;12.50;99.90;;;;;;4112539;28;20506;-62
2023/11/08 08:32:15;;;;;;;29.57;15.83;;;12.50;99.90;;;;;;4111825;28;20031;-63
2023/11/08 08:34:16;;;;;;;24.50;13.23;;;12.70;99.90;;;;;;4112422;28;20499;-63
2023/11/08 08:36:17;;;;;;;23.73;13.00;;;12.70;99.90;;;;;;4111216;28;20046;-62
2023/11/08 08:38:19;;;;;;;24.03;12.07;;;12.90;99.90;;;;;;4112346;28;20030;-62
2023/11/08 08:40:20;;;;;;;23.60;13.93;;;12.90;99.90;;;;;;4125768;28;20477;-62
2023/11/08 08:42:21;;;;;;;22.40;13.27;;;13.00;99.90;;;;;;4112512;28;20519;-61
2023/11/08 08:44:23;;;;;;;26.10;12.67;;;13.10;99.90;;;;;;4111397;28;20026;-62
2023/11/08 08:46:24;;;;;;;27.17;13.20;;;13.10;99.90;;;;;;4112678;28;20058;-61
2023/11/08 08:48:26;;;;;;;26.87;12.97;;;13.20;99.90;;;;;;4111267;28;20094;-62
2023/11/08 08:50:27;;;;;;;20.73;12.67;;;13.20;99.90;;;;;;4112264;28;20129;-62
2023/11/08 08:52:29;;;;;;;24.73;12.77;;;13.30;99.90;;;;;;4111412;28;20039;-63
2023/11/08 08:54:30;;;;;;;19.37;12.57;;;13.30;99.90;;;;;;4111985;28;20043;-62
2023/11/08 08:56:33;;;;;;;22.73;12.30;;;13.30;99.90;;;;;;4111609;28;20542;-63
2023/11/08 08:58:35;;;;;;;23.40;13.20;;;13.30;99.90;;;;;;4111283;28;20106;-63
2023/11/08 09:00:36;;;;;;;18.48;11.65;;;13.30;99.90;;;;;;4112030;28;20570;-63
2023/11/08 09:02:37;;;;;;;18.23;11.87;;;13.40;99.90;;;;;;4111362;28;20101;-63
2023/11/08 09:04:39;;;;;;;21.50;11.13;;;13.40;99.90;;;;;;4111995;28;20150;-63
2023/11/08 09:06:40;;;;;;;17.53;11.10;;;13.50;99.90;;;;;;4111025;28;20427;-61
2023/11/08 09:08:41;;;;;;;18.33;10.88;;;13.50;99.90;;;;;;4112470;28;20046;-63
2023/11/08 09:10:42;;;;;;;22.37;11.20;;;13.60;99.90;;;;;;4109562;28;20039;-63
2023/11/08 09:12:44;;;;;;;15.45;9.27;;;13.60;99.90;;;;;;4112300;28;20030;-62
2023/11/08 09:14:54;;;;;;;15.05;9.15;;;13.70;99.90;;;;;;4111305;28;20030;-63
2023/11/08 09:16:56;;;;;;;15.17;8.47;;;13.80;99.90;;;;;;4112132;28;20460;-62
2023/11/08 09:18:57;;;;;;;13.23;8.35;;;13.90;99.90;;;;;;4111799;28;20078;-63
2023/11/08 09:20:59;;;;;;;11.88;8.25;;;13.90;99.90;;;;;;4115331;28;20572;-62
2023/11/08 09:23:00;;;;;;;15.32;9.18;;;13.90;99.90;;;;;;4114348;28;20031;-63
2023/11/08 09:25:04;;;;;;;12.77;8.90;;;13.90;99.90;;;;;;4115143;28;20085;-64
2023/11/08 09:27:06;;;;;;;13.23;8.88;;;13.80;99.90;;;;;;4114209;28;20030;-62
2023/11/08 09:29:07;;;;;;;15.00;8.50;;;13.80;99.90;;;;;;4114654;28;20103;-62
2023/11/08 09:31:11;;;;;;;13.40;8.02;;;13.90;99.90;;;;;;4114824;28;20022;-62
2023/11/08 09:33:13;;;;;;;10.45;7.68;;;13.80;99.90;;;;;;4114249;28;20073;-62
2023/11/08 09:35:14;;;;;;;12.98;7.07;;;13.80;99.90;;;;;;4114553;28;20428;-62
2023/11/08 09:37:16;;;;;;;11.38;7.10;;;13.80;99.90;;;;;;4113770;28;20034;-62
2023/11/08 09:39:17;;;;;;;12.00;7.00;;;13.80;99.90;;;;;;4115046;28;20030;-62
2023/11/08 09:41:19;;;;;;;11.45;7.72;;;13.80;99.90;;;;;;4113755;28;20554;-62
2023/11/08 09:43:22;;;;;;;10.60;6.78;;;13.80;99.90;;;;;;4115267;28;20106;-63
2023/11/08 09:45:31;;;;;;;9.50;6.95;;;13.80;99.90;;;;;;4113847;28;20043;-62
2023/11/08 09:47:35;;;;;;;14.40;7.55;;;13.70;99.90;;;;;;4114741;28;20044;-62
2023/11/08 09:49:36;;;;;;;10.80;6.70;;;13.70;99.90;;;;;;4113616;28;20101;-62
2023/11/08 09:51:38;;;;;;;10.32;7.43;;;13.80;99.90;;;;;;4114701;28;20023;-62
2023/11/08 09:53:43;;;;;;;10.50;6.20;;;13.90;99.90;;;;;;4113644;28;20054;-62
2023/11/08 09:55:45;;;;;;;11.30;7.10;;;13.90;99.90;;;;;;4114761;28;20500;-60
2023/11/08 09:57:49;;;;;;;11.77;7.55;;;14.00;99.90;;;;;;4113497;28;20079;-61
2023/11/08 09:59:51;;;;;;;13.10;7.15;;;14.10;99.90;;;;;;4114602;28;20039;-64
2023/11/08 10:01:53;;;;;;;8.90;6.32;;;14.10;99.90;;;;;;4112301;28;20098;-62
2023/11/08 10:03:55;;;;;;;11.93;6.43;;;14.10;99.90;;;;;;4114263;28;20098;-64
2023/11/08 10:05:56;;;;;;;8.63;5.55;;;14.10;99.90;;;;;;4113582;28;20494;-64
2023/11/08 10:07:57;;;;;;;8.15;5.30;;;14.00;99.90;;;;;;4114066;28;20085;-62
2023/11/08 10:09:58;;;;;;;14.35;6.38;;;13.90;99.90;;;;;;4114194;28;20089;-63
2023/11/08 10:12:00;;;;;;;8.90;5.65;;;13.90;99.90;;;;;;4113491;28;20107;-63
2023/11/08 10:14:01;;;;;;;8.55;5.78;;;13.80;99.90;;;;;;4114398;28;20500;-64
2023/11/08 10:16:03;;;;;;;14.30;6.55;;;13.80;99.90;;;;;;4113286;28;20106;-62
2023/11/08 10:18:07;;;;;;;10.55;5.78;;;13.80;99.90;;;;;;4114601;28;20102;-64
2023/11/08 10:20:11;;;;;;;8.20;5.68;;;13.80;99.90;;;;;;4113237;28;20092;-64
2023/11/08 10:22:19;;;;;;;8.10;5.45;;;13.90;99.90;;;;;;4114243;28;20039;-62
2023/11/08 10:24:20;;;;;;;13.45;6.50;;;13.90;99.90;;;;;;4113184;28;20446;-62